sensor_id;sensor_type;location;lat;lon;timestamp;P1;durP1;ratioP1;P2;durP2;ratioP2
57599;SDS011;43426;43.594;24.334;2023-05-10T00:01:10;14.43;;;12.63;;
57599;SDS011;43426;43.594;24.334;2023-05-10T00:03:36;17.27;;;12.43;;
57599;SDS011;43426;43.594;24.334;2023-05-10T00:06:01;15.40;;;12.43;;
57599;SDS011;43426;43.594;24.334;2023-05-10T00:08:27;13.70;;;12.40;;
57599;SDS011;43426;43.594;24.334;2023-05-10T00:10:52;13.57;;;12.27;;
57599;SDS011;43426;43.594;24.334;2023-05-10T00:13:18;14.48;;;12.98;;
57599;SDS011;43426;43.594;24.334;2023-05-10T00:15:43;14.90;;;13.23;;
57599;SDS011;43426;43.594;24.334;2023-05-10T00:18:09;13.97;;;12.57;;
57599;SDS011;43426;43.594;24.334;2023-05-10T00:20:34;14.70;;;12.53;;
57599;SDS011;43426;43.594;24.334;2023-05-10T00:22:59;20.50;;;12.27;;
57599;SDS011;43426;43.594;24.334;2023-05-10T00:25:25;13.90;;;12.52;;
57599;SDS011;43426;43.594;24.334;2023-05-10T00:27:51;13.50;;;12.05;;
57599;SDS011;43426;43.594;24.334;2023-05-10T00:30:17;14.80;;;13.30;;
57599;SDS011;43426;43.594;24.334;2023-05-10T00:32:43;13.05;;;11.75;;
57599;SDS011;43426;43.594;24.334;2023-05-10T00:35:08;15.32;;;13.77;;
57599;SDS011;43426;43.594;24.334;2023-05-10T00:37:33;17.75;;;13.43;;
57599;SDS011;43426;43.594;24.334;2023-05-10T00:39:59;14.82;;;13.13;;
57599;SDS011;43426;43.594;24.334;2023-05-10T00:42:24;14.68;;;12.45;;
57599;SDS011;43426;43.594;24.334;2023-05-10T00:44:50;13.85;;;12.23;;
57599;SDS011;43426;43.594;24.334;2023-05-10T00:47:16;15.13;;;13.30;;
57599;SDS011;43426;43.594;24.334;2023-05-10T00:49:41;14.77;;;12.25;;
57599;SDS011;43426;43.594;24.334;2023-05-10T00:52:09;12.95;;;11.75;;
57599;SDS011;43426;43.594;24.334;2023-05-10T00:54:35;14.48;;;13.07;;
57599;SDS011;43426;43.594;24.334;2023-05-10T00:57:01;14.05;;;12.07;;
57599;SDS011;43426;43.594;24.334;2023-05-10T00:59:28;16.17;;;12.57;;
57599;SDS011;43426;43.594;24.334;2023-05-10T01:01:54;15.13;;;12.45;;
57599;SDS011;43426;43.594;24.334;2023-05-10T01:04:20;14.40;;;12.45;;
57599;SDS011;43426;43.594;24.334;2023-05-10T01:06:50;18.17;;;13.73;;
57599;SDS011;43426;43.594;24.334;2023-05-10T01:09:17;12.93;;;11.60;;
57599;SDS011;43426;43.594;24.334;2023-05-10T01:11:43;15.30;;;12.55;;
57599;SDS011;43426;43.594;24.334;2023-05-10T01:14:08;14.05;;;12.60;;
57599;SDS011;43426;43.594;24.334;2023-05-10T01:16:36;17.55;;;13.40;;
57599;SDS011;43426;43.594;24.334;2023-05-10T01:19:07;15.65;;;13.27;;
57599;SDS011;43426;43.594;24.334;2023-05-10T01:43:53;14.02;;;12.27;;
57599;SDS011;43426;43.594;24.334;2023-05-10T01:46:24;15.77;;;12.48;;
57599;SDS011;43426;43.594;24.334;2023-05-10T01:49:02;18.25;;;13.93;;
57599;SDS011;43426;43.594;24.334;2023-05-10T01:51:36;17.58;;;13.68;;
57599;SDS011;43426;43.594;24.334;2023-05-10T01:54:16;17.77;;;13.85;;
57599;SDS011;43426;43.594;24.334;2023-05-10T01:56:44;17.38;;;14.43;;
57599;SDS011;43426;43.594;24.334;2023-05-10T01:59:14;18.17;;;14.18;;
57599;SDS011;43426;43.594;24.334;2023-05-10T02:01:43;15.02;;;13.45;;
57599;SDS011;43426;43.594;24.334;2023-05-10T02:04:13;16.10;;;14.23;;
57599;SDS011;43426;43.594;24.334;2023-05-10T02:06:42;20.05;;;14.32;;
57599;SDS011;43426;43.594;24.334;2023-05-10T02:09:09;15.43;;;13.77;;
57599;SDS011;43426;43.594;24.334;2023-05-10T02:11:37;16.88;;;14.23;;
57599;SDS011;43426;43.594;24.334;2023-05-10T02:14:05;20.42;;;14.30;;
57599;SDS011;43426;43.594;24.334;2023-05-10T02:16:33;16.77;;;14.20;;
57599;SDS011;43426;43.594;24.334;2023-05-10T02:19:01;16.30;;;13.55;;
57599;SDS011;43426;43.594;24.334;2023-05-10T02:21:27;16.20;;;13.73;;
57599;SDS011;43426;43.594;24.334;2023-05-10T02:26:19;14.30;;;12.85;;
57599;SDS011;43426;43.594;24.334;2023-05-10T02:28:47;14.70;;;12.95;;
57599;SDS011;43426;43.594;24.334;2023-05-10T02:31:14;15.57;;;13.98;;
57599;SDS011;43426;43.594;24.334;2023-05-10T02:33:40;14.75;;;13.35;;
57599;SDS011;43426;43.594;24.334;2023-05-10T02:36:07;14.63;;;13.18;;
57599;SDS011;43426;43.594;24.334;2023-05-10T02:38:33;14.30;;;12.88;;
57599;SDS011;43426;43.594;24.334;2023-05-10T02:41:01;16.45;;;13.25;;
57599;SDS011;43426;43.594;24.334;2023-05-10T02:43:30;16.00;;;12.88;;
57599;SDS011;43426;43.594;24.334;2023-05-10T02:45:58;16.38;;;13.23;;
57599;SDS011;43426;43.594;24.334;2023-05-10T02:48:23;14.82;;;13.27;;
57599;SDS011;43426;43.594;24.334;2023-05-10T02:50:49;15.52;;;12.70;;
57599;SDS011;43426;43.594;24.334;2023-05-10T02:53:31;14.88;;;13.23;;
57599;SDS011;43426;43.594;24.334;2023-05-10T02:55:59;15.27;;;13.68;;
57599;SDS011;43426;43.594;24.334;2023-05-10T02:58:29;14.70;;;13.07;;
57599;SDS011;43426;43.594;24.334;2023-05-10T03:00:54;14.77;;;13.13;;
57599;SDS011;43426;43.594;24.334;2023-05-10T03:03:20;16.05;;;13.50;;
57599;SDS011;43426;43.594;24.334;2023-05-10T03:05:46;14.35;;;12.90;;
57599;SDS011;43426;43.594;24.334;2023-05-10T03:08:11;15.53;;;12.83;;
57599;SDS011;43426;43.594;24.334;2023-05-10T03:10:38;15.65;;;12.77;;
57599;SDS011;43426;43.594;24.334;2023-05-10T03:13:16;17.85;;;12.50;;
57599;SDS011;43426;43.594;24.334;2023-05-10T03:21:16;14.63;;;13.13;;
57599;SDS011;43426;43.594;24.334;2023-05-10T03:23:45;16.33;;;14.10;;
57599;SDS011;43426;43.594;24.334;2023-05-10T03:26:20;17.85;;;13.68;;
57599;SDS011;43426;43.594;24.334;2023-05-10T03:28:48;16.67;;;13.38;;
57599;SDS011;43426;43.594;24.334;2023-05-10T03:31:15;15.93;;;12.57;;
57599;SDS011;43426;43.594;24.334;2023-05-10T03:33:48;13.95;;;12.10;;
57599;SDS011;43426;43.594;24.334;2023-05-10T03:36:14;14.30;;;12.80;;
57599;SDS011;43426;43.594;24.334;2023-05-10T03:38:40;14.75;;;13.15;;
57599;SDS011;43426;43.594;24.334;2023-05-10T03:41:05;15.30;;;13.48;;
57599;SDS011;43426;43.594;24.334;2023-05-10T03:43:33;13.30;;;11.90;;
57599;SDS011;43426;43.594;24.334;2023-05-10T03:46:01;13.98;;;12.40;;
57599;SDS011;43426;43.594;24.334;2023-05-10T03:48:27;16.15;;;12.35;;
57599;SDS011;43426;43.594;24.334;2023-05-10T03:50:52;13.27;;;11.75;;
57599;SDS011;43426;43.594;24.334;2023-05-10T03:53:17;13.50;;;12.10;;
57599;SDS011;43426;43.594;24.334;2023-05-10T03:55:43;12.60;;;11.32;;
57599;SDS011;43426;43.594;24.334;2023-05-10T03:58:10;13.32;;;10.73;;
57599;SDS011;43426;43.594;24.334;2023-05-10T04:00:36;11.93;;;10.70;;
57599;SDS011;43426;43.594;24.334;2023-05-10T04:03:02;12.40;;;11.10;;
57599;SDS011;43426;43.594;24.334;2023-05-10T04:05:27;11.68;;;10.63;;
57599;SDS011;43426;43.594;24.334;2023-05-10T04:07:53;11.80;;;10.70;;
57599;SDS011;43426;43.594;24.334;2023-05-10T04:10:18;13.82;;;10.85;;
57599;SDS011;43426;43.594;24.334;2023-05-10T04:12:44;12.48;;;11.18;;
57599;SDS011;43426;43.594;24.334;2023-05-10T04:15:09;11.52;;;10.55;;
57599;SDS011;43426;43.594;24.334;2023-05-10T04:17:35;12.23;;;11.13;;
57599;SDS011;43426;43.594;24.334;2023-05-10T04:20:00;11.85;;;10.60;;
57599;SDS011;43426;43.594;24.334;2023-05-10T04:22:25;11.45;;;10.45;;
57599;SDS011;43426;43.594;24.334;2023-05-10T04:24:52;13.23;;;10.10;;
57599;SDS011;43426;43.594;24.334;2023-05-10T04:27:17;12.95;;;11.40;;
57599;SDS011;43426;43.594;24.334;2023-05-10T04:29:43;11.68;;;10.50;;
57599;SDS011;43426;43.594;24.334;2023-05-10T04:32:08;14.18;;;10.30;;
57599;SDS011;43426;43.594;24.334;2023-05-10T04:34:35;11.68;;;10.57;;
57599;SDS011;43426;43.594;24.334;2023-05-10T04:39:26;13.80;;;10.57;;
57599;SDS011;43426;43.594;24.334;2023-05-10T04:41:51;10.80;;;9.43;;
57599;SDS011;43426;43.594;24.334;2023-05-10T04:44:19;11.35;;;9.82;;
57599;SDS011;43426;43.594;24.334;2023-05-10T04:46:45;10.55;;;9.48;;
57599;SDS011;43426;43.594;24.334;2023-05-10T04:49:10;10.13;;;9.15;;
57599;SDS011;43426;43.594;24.334;2023-05-10T04:54:02;8.85;;;7.93;;
57599;SDS011;43426;43.594;24.334;2023-05-10T04:56:27;9.63;;;8.77;;
57599;SDS011;43426;43.594;24.334;2023-05-10T04:58:53;8.68;;;7.88;;
57599;SDS011;43426;43.594;24.334;2023-05-10T05:01:18;8.85;;;8.18;;
57599;SDS011;43426;43.594;24.334;2023-05-10T05:03:43;9.05;;;8.23;;
57599;SDS011;43426;43.594;24.334;2023-05-10T05:06:09;8.10;;;7.40;;
57599;SDS011;43426;43.594;24.334;2023-05-10T05:08:34;8.60;;;7.15;;
57599;SDS011;43426;43.594;24.334;2023-05-10T05:13:25;9.48;;;7.18;;
57599;SDS011;43426;43.594;24.334;2023-05-10T05:15:50;7.60;;;6.60;;
57599;SDS011;43426;43.594;24.334;2023-05-10T05:18:16;6.85;;;6.00;;
57599;SDS011;43426;43.594;24.334;2023-05-10T05:20:41;10.23;;;6.10;;
57599;SDS011;43426;43.594;24.334;2023-05-10T05:23:07;8.60;;;6.57;;
57599;SDS011;43426;43.594;24.334;2023-05-10T05:25:32;6.55;;;5.95;;
57599;SDS011;43426;43.594;24.334;2023-05-10T05:30:23;5.95;;;5.45;;
57599;SDS011;43426;43.594;24.334;2023-05-10T05:35:13;5.93;;;5.43;;
57599;SDS011;43426;43.594;24.334;2023-05-10T05:40:05;5.38;;;4.88;;
57599;SDS011;43426;43.594;24.334;2023-05-10T05:42:31;6.03;;;5.53;;
57599;SDS011;43426;43.594;24.334;2023-05-10T05:44:56;6.00;;;5.57;;
57599;SDS011;43426;43.594;24.334;2023-05-10T05:49:47;5.15;;;4.78;;
57599;SDS011;43426;43.594;24.334;2023-05-10T05:52:13;5.20;;;4.70;;
57599;SDS011;43426;43.594;24.334;2023-05-10T05:54:38;9.02;;;5.15;;
57599;SDS011;43426;43.594;24.334;2023-05-10T05:59:29;5.00;;;4.35;;
57599;SDS011;43426;43.594;24.334;2023-05-10T06:01:54;4.15;;;3.85;;
57599;SDS011;43426;43.594;24.334;2023-05-10T06:06:45;5.00;;;3.80;;
57599;SDS011;43426;43.594;24.334;2023-05-10T06:11:36;6.65;;;3.25;;
57599;SDS011;43426;43.594;24.334;2023-05-10T06:16:28;5.25;;;4.15;;
57599;SDS011;43426;43.594;24.334;2023-05-10T06:21:19;3.10;;;2.80;;
57599;SDS011;43426;43.594;24.334;2023-05-10T06:26:10;4.03;;;2.28;;
57599;SDS011;43426;43.594;24.334;2023-05-10T06:31:03;2.85;;;2.45;;
57599;SDS011;43426;43.594;24.334;2023-05-10T06:33:29;4.18;;;2.63;;
57599;SDS011;43426;43.594;24.334;2023-05-10T06:35:55;3.80;;;2.75;;
57599;SDS011;43426;43.594;24.334;2023-05-10T06:40:46;2.88;;;2.42;;
57599;SDS011;43426;43.594;24.334;2023-05-10T06:45:39;2.97;;;2.78;;
57599;SDS011;43426;43.594;24.334;2023-05-10T06:48:05;1.88;;;1.77;;
57599;SDS011;43426;43.594;24.334;2023-05-10T06:50:31;2.38;;;2.10;;
57599;SDS011;43426;43.594;24.334;2023-05-10T06:55:22;3.90;;;2.15;;
57599;SDS011;43426;43.594;24.334;2023-05-10T07:00:14;6.55;;;2.00;;
57599;SDS011;43426;43.594;24.334;2023-05-10T07:05:05;3.03;;;2.17;;
57599;SDS011;43426;43.594;24.334;2023-05-10T07:09:56;2.40;;;2.00;;
57599;SDS011;43426;43.594;24.334;2023-05-10T07:12:22;2.17;;;1.70;;
57599;SDS011;43426;43.594;24.334;2023-05-10T07:17:13;2.65;;;2.10;;
57599;SDS011;43426;43.594;24.334;2023-05-10T07:22:04;2.15;;;1.98;;
57599;SDS011;43426;43.594;24.334;2023-05-10T07:26:56;2.13;;;1.92;;
57599;SDS011;43426;43.594;24.334;2023-05-10T07:29:21;5.38;;;1.88;;
57599;SDS011;43426;43.594;24.334;2023-05-10T07:31:47;5.57;;;1.90;;
57599;SDS011;43426;43.594;24.334;2023-05-10T07:36:37;2.05;;;1.85;;
57599;SDS011;43426;43.594;24.334;2023-05-10T07:41:31;3.85;;;2.15;;
57599;SDS011;43426;43.594;24.334;2023-05-10T07:43:57;2.38;;;2.17;;
57599;SDS011;43426;43.594;24.334;2023-05-10T07:48:48;3.50;;;2.00;;
57599;SDS011;43426;43.594;24.334;2023-05-10T07:51:14;2.28;;;2.10;;
57599;SDS011;43426;43.594;24.334;2023-05-10T07:58:51;5.13;;;2.10;;
57599;SDS011;43426;43.594;24.334;2023-05-10T08:03:42;2.42;;;2.25;;
57599;SDS011;43426;43.594;24.334;2023-05-10T08:08:33;3.33;;;1.90;;
57599;SDS011;43426;43.594;24.334;2023-05-10T08:13:23;2.30;;;2.10;;
57599;SDS011;43426;43.594;24.334;2023-05-10T08:18:15;2.88;;;1.90;;
57599;SDS011;43426;43.594;24.334;2023-05-10T08:23:06;3.00;;;1.63;;
57599;SDS011;43426;43.594;24.334;2023-05-10T08:27:57;2.28;;;2.15;;
57599;SDS011;43426;43.594;24.334;2023-05-10T08:32:47;1.88;;;1.77;;
57599;SDS011;43426;43.594;24.334;2023-05-10T08:37:38;1.52;;;1.42;;
57599;SDS011;43426;43.594;24.334;2023-05-10T08:42:30;4.38;;;1.92;;
57599;SDS011;43426;43.594;24.334;2023-05-10T08:44:59;3.10;;;1.42;;
57599;SDS011;43426;43.594;24.334;2023-05-10T08:47:25;5.20;;;1.60;;
57599;SDS011;43426;43.594;24.334;2023-05-10T08:52:17;2.40;;;1.73;;
57599;SDS011;43426;43.594;24.334;2023-05-10T08:54:43;1.75;;;1.65;;
57599;SDS011;43426;43.594;24.334;2023-05-10T08:59:35;2.75;;;1.90;;
57599;SDS011;43426;43.594;24.334;2023-05-10T09:02:03;1.98;;;1.65;;
57599;SDS011;43426;43.594;24.334;2023-05-10T09:04:29;3.63;;;1.30;;
57599;SDS011;43426;43.594;24.334;2023-05-10T09:06:56;2.28;;;2.08;;
57599;SDS011;43426;43.594;24.334;2023-05-10T09:09:22;3.38;;;1.63;;
57599;SDS011;43426;43.594;24.334;2023-05-10T09:11:49;2.97;;;1.67;;
57599;SDS011;43426;43.594;24.334;2023-05-10T09:16:40;2.38;;;2.15;;
57599;SDS011;43426;43.594;24.334;2023-05-10T09:21:34;1.58;;;1.48;;
57599;SDS011;43426;43.594;24.334;2023-05-10T09:24:05;3.58;;;1.50;;
57599;SDS011;43426;43.594;24.334;2023-05-10T09:26:31;1.65;;;1.55;;
57599;SDS011;43426;43.594;24.334;2023-05-10T09:31:23;1.55;;;1.45;;
57599;SDS011;43426;43.594;24.334;2023-05-10T09:33:53;1.52;;;1.42;;
57599;SDS011;43426;43.594;24.334;2023-05-10T09:41:22;3.35;;;1.38;;
57599;SDS011;43426;43.594;24.334;2023-05-10T09:43:48;1.42;;;1.30;;
57599;SDS011;43426;43.594;24.334;2023-05-10T09:46:15;2.30;;;1.40;;
57599;SDS011;43426;43.594;24.334;2023-05-10T09:48:41;1.33;;;1.20;;
57599;SDS011;43426;43.594;24.334;2023-05-10T09:51:21;1.23;;;1.10;;
57599;SDS011;43426;43.594;24.334;2023-05-10T09:53:47;1.40;;;1.30;;
57599;SDS011;43426;43.594;24.334;2023-05-10T09:56:32;1.30;;;1.10;;
57599;SDS011;43426;43.594;24.334;2023-05-10T09:59:02;4.05;;;1.17;;
57599;SDS011;43426;43.594;24.334;2023-05-10T10:01:28;2.00;;;1.10;;
57599;SDS011;43426;43.594;24.334;2023-05-10T10:03:54;2.40;;;0.98;;
57599;SDS011;43426;43.594;24.334;2023-05-10T10:06:22;2.40;;;1.20;;
57599;SDS011;43426;43.594;24.334;2023-05-10T10:08:48;1.60;;;1.10;;
57599;SDS011;43426;43.594;24.334;2023-05-10T10:11:14;1.33;;;1.23;;
57599;SDS011;43426;43.594;24.334;2023-05-10T10:13:40;1.13;;;1.10;;
57599;SDS011;43426;43.594;24.334;2023-05-10T10:16:06;1.50;;;1.00;;
57599;SDS011;43426;43.594;24.334;2023-05-10T10:18:33;1.20;;;1.10;;
57599;SDS011;43426;43.594;24.334;2023-05-10T10:21:04;1.42;;;1.33;;
57599;SDS011;43426;43.594;24.334;2023-05-10T10:23:31;1.67;;;1.10;;
57599;SDS011;43426;43.594;24.334;2023-05-10T10:25:57;1.65;;;1.23;;
57599;SDS011;43426;43.594;24.334;2023-05-10T10:28:35;1.00;;;0.90;;
57599;SDS011;43426;43.594;24.334;2023-05-10T10:31:32;1.25;;;1.15;;
57599;SDS011;43426;43.594;24.334;2023-05-10T10:34:08;1.10;;;0.93;;
57599;SDS011;43426;43.594;24.334;2023-05-10T10:36:45;2.17;;;1.00;;
57599;SDS011;43426;43.594;24.334;2023-05-10T10:39:12;2.05;;;1.10;;
57599;SDS011;43426;43.594;24.334;2023-05-10T10:41:49;1.88;;;1.27;;
57599;SDS011;43426;43.594;24.334;2023-05-10T10:52:26;1.77;;;1.00;;
57599;SDS011;43426;43.594;24.334;2023-05-10T10:57:58;1.20;;;0.80;;
57599;SDS011;43426;43.594;24.334;2023-05-10T11:00:29;0.60;;;0.60;;
57599;SDS011;43426;43.594;24.334;2023-05-10T11:03:09;4.55;;;0.93;;
57599;SDS011;43426;43.594;24.334;2023-05-10T11:05:49;1.23;;;1.00;;
57599;SDS011;43426;43.594;24.334;2023-05-10T11:11:19;1.23;;;1.00;;
57599;SDS011;43426;43.594;24.334;2023-05-10T11:13:43;1.38;;;1.27;;
57599;SDS011;43426;43.594;24.334;2023-05-10T11:18:57;1.05;;;0.95;;
57599;SDS011;43426;43.594;24.334;2023-05-10T11:21:23;1.10;;;1.00;;
57599;SDS011;43426;43.594;24.334;2023-05-10T11:26:17;1.15;;;0.95;;
57599;SDS011;43426;43.594;24.334;2023-05-10T11:28:47;1.02;;;0.93;;
57599;SDS011;43426;43.594;24.334;2023-05-10T11:31:13;1.10;;;1.00;;
57599;SDS011;43426;43.594;24.334;2023-05-10T11:33:47;0.95;;;0.80;;
57599;SDS011;43426;43.594;24.334;2023-05-10T11:36:17;1.67;;;1.10;;
57599;SDS011;43426;43.594;24.334;2023-05-10T11:38:44;2.75;;;1.10;;
57599;SDS011;43426;43.594;24.334;2023-05-10T11:41:10;1.08;;;0.98;;
57599;SDS011;43426;43.594;24.334;2023-05-10T11:43:38;1.33;;;1.27;;
57599;SDS011;43426;43.594;24.334;2023-05-10T11:46:05;4.43;;;0.68;;
57599;SDS011;43426;43.594;24.334;2023-05-10T11:48:35;2.35;;;1.25;;
57599;SDS011;43426;43.594;24.334;2023-05-10T11:51:01;1.40;;;1.00;;
57599;SDS011;43426;43.594;24.334;2023-05-10T11:53:29;1.00;;;0.90;;
57599;SDS011;43426;43.594;24.334;2023-05-10T11:56:02;0.93;;;0.93;;
57599;SDS011;43426;43.594;24.334;2023-05-10T11:58:28;1.27;;;1.13;;
57599;SDS011;43426;43.594;24.334;2023-05-10T12:00:53;0.90;;;0.90;;
57599;SDS011;43426;43.594;24.334;2023-05-10T12:03:19;1.05;;;1.00;;
57599;SDS011;43426;43.594;24.334;2023-05-10T12:05:44;3.33;;;1.00;;
57599;SDS011;43426;43.594;24.334;2023-05-10T12:08:10;1.25;;;0.98;;
57599;SDS011;43426;43.594;24.334;2023-05-10T12:10:40;0.80;;;0.80;;
57599;SDS011;43426;43.594;24.334;2023-05-10T12:13:05;1.38;;;1.13;;
57599;SDS011;43426;43.594;24.334;2023-05-10T12:15:35;2.55;;;1.13;;
57599;SDS011;43426;43.594;24.334;2023-05-10T12:18:00;1.00;;;0.80;;
57599;SDS011;43426;43.594;24.334;2023-05-10T12:20:27;1.10;;;1.00;;
57599;SDS011;43426;43.594;24.334;2023-05-10T12:22:53;1.30;;;0.90;;
57599;SDS011;43426;43.594;24.334;2023-05-10T12:25:21;2.25;;;1.67;;
57599;SDS011;43426;43.594;24.334;2023-05-10T12:27:51;1.00;;;0.90;;
57599;SDS011;43426;43.594;24.334;2023-05-10T12:30:25;2.45;;;1.02;;
57599;SDS011;43426;43.594;24.334;2023-05-10T12:32:51;1.75;;;1.00;;
57599;SDS011;43426;43.594;24.334;2023-05-10T12:35:17;1.77;;;1.10;;
57599;SDS011;43426;43.594;24.334;2023-05-10T12:37:47;1.55;;;1.00;;
57599;SDS011;43426;43.594;24.334;2023-05-10T12:40:13;1.23;;;1.00;;
57599;SDS011;43426;43.594;24.334;2023-05-10T12:42:38;2.70;;;0.80;;
57599;SDS011;43426;43.594;24.334;2023-05-10T12:45:05;1.20;;;1.00;;
57599;SDS011;43426;43.594;24.334;2023-05-10T12:47:31;2.08;;;1.20;;
57599;SDS011;43426;43.594;24.334;2023-05-10T12:49:57;2.28;;;1.00;;
57599;SDS011;43426;43.594;24.334;2023-05-10T12:52:23;7.55;;;1.05;;
57599;SDS011;43426;43.594;24.334;2023-05-10T12:54:50;0.90;;;0.90;;
57599;SDS011;43426;43.594;24.334;2023-05-10T12:57:15;1.58;;;1.00;;
57599;SDS011;43426;43.594;24.334;2023-05-10T12:59:40;0.95;;;0.95;;
57599;SDS011;43426;43.594;24.334;2023-05-10T13:02:06;1.17;;;0.82;;
57599;SDS011;43426;43.594;24.334;2023-05-10T13:04:31;1.45;;;0.90;;
57599;SDS011;43426;43.594;24.334;2023-05-10T13:06:57;1.67;;;0.93;;
57599;SDS011;43426;43.594;24.334;2023-05-10T13:09:24;0.80;;;0.80;;
57599;SDS011;43426;43.594;24.334;2023-05-10T13:11:50;1.05;;;0.73;;
57599;SDS011;43426;43.594;24.334;2023-05-10T13:14:16;1.05;;;0.95;;
57599;SDS011;43426;43.594;24.334;2023-05-10T13:16:41;1.00;;;0.93;;
57599;SDS011;43426;43.594;24.334;2023-05-10T13:19:07;2.05;;;1.00;;
57599;SDS011;43426;43.594;24.334;2023-05-10T13:21:32;1.80;;;1.10;;
57599;SDS011;43426;43.594;24.334;2023-05-10T13:23:57;1.00;;;0.90;;
57599;SDS011;43426;43.594;24.334;2023-05-10T13:26:23;2.10;;;0.80;;
57599;SDS011;43426;43.594;24.334;2023-05-10T13:28:48;1.13;;;1.02;;
57599;SDS011;43426;43.594;24.334;2023-05-10T13:31:16;1.00;;;1.00;;
57599;SDS011;43426;43.594;24.334;2023-05-10T13:33:41;1.00;;;0.90;;
57599;SDS011;43426;43.594;24.334;2023-05-10T13:36:07;1.27;;;1.00;;
57599;SDS011;43426;43.594;24.334;2023-05-10T13:38:32;0.80;;;0.80;;
57599;SDS011;43426;43.594;24.334;2023-05-10T13:41:00;0.80;;;0.80;;
57599;SDS011;43426;43.594;24.334;2023-05-10T13:43:25;1.00;;;1.00;;
57599;SDS011;43426;43.594;24.334;2023-05-10T13:45:51;0.90;;;0.90;;
57599;SDS011;43426;43.594;24.334;2023-05-10T13:48:17;1.13;;;1.02;;
57599;SDS011;43426;43.594;24.334;2023-05-10T13:50:42;1.20;;;1.10;;
57599;SDS011;43426;43.594;24.334;2023-05-10T13:53:08;1.02;;;1.00;;
57599;SDS011;43426;43.594;24.334;2023-05-10T13:58:56;1.10;;;1.00;;
57599;SDS011;43426;43.594;24.334;2023-05-10T14:01:22;1.00;;;1.00;;
57599;SDS011;43426;43.594;24.334;2023-05-10T14:06:13;1.02;;;1.02;;
57599;SDS011;43426;43.594;24.334;2023-05-10T14:08:39;1.15;;;1.05;;
57599;SDS011;43426;43.594;24.334;2023-05-10T14:13:33;1.13;;;0.90;;
57599;SDS011;43426;43.594;24.334;2023-05-10T14:15:58;1.90;;;1.38;;
57599;SDS011;43426;43.594;24.334;2023-05-10T14:18:25;1.20;;;1.10;;
57599;SDS011;43426;43.594;24.334;2023-05-10T14:20:51;1.75;;;1.13;;
57599;SDS011;43426;43.594;24.334;2023-05-10T14:23:20;1.00;;;1.00;;
57599;SDS011;43426;43.594;24.334;2023-05-10T14:25:49;0.90;;;0.90;;
57599;SDS011;43426;43.594;24.334;2023-05-10T14:28:17;0.93;;;0.93;;
57599;SDS011;43426;43.594;24.334;2023-05-10T14:33:09;3.05;;;1.05;;
57599;SDS011;43426;43.594;24.334;2023-05-10T14:38:01;1.20;;;1.10;;
57599;SDS011;43426;43.594;24.334;2023-05-10T14:40:28;1.60;;;1.50;;
57599;SDS011;43426;43.594;24.334;2023-05-10T14:45:19;1.00;;;0.90;;
57599;SDS011;43426;43.594;24.334;2023-05-10T14:47:46;2.05;;;1.20;;
57599;SDS011;43426;43.594;24.334;2023-05-10T14:55:58;1.30;;;1.20;;
57599;SDS011;43426;43.594;24.334;2023-05-10T14:58:26;2.33;;;1.17;;
57599;SDS011;43426;43.594;24.334;2023-05-10T15:00:52;0.93;;;0.93;;
57599;SDS011;43426;43.594;24.334;2023-05-10T15:05:43;1.42;;;1.00;;
57599;SDS011;43426;43.594;24.334;2023-05-10T15:08:08;1.20;;;1.10;;
57599;SDS011;43426;43.594;24.334;2023-05-10T15:10:34;2.60;;;1.13;;
57599;SDS011;43426;43.594;24.334;2023-05-10T15:13:00;1.33;;;1.23;;
57599;SDS011;43426;43.594;24.334;2023-05-10T15:17:51;0.98;;;0.90;;
57599;SDS011;43426;43.594;24.334;2023-05-10T15:20:17;1.52;;;1.05;;
57599;SDS011;43426;43.594;24.334;2023-05-10T15:22:42;2.67;;;1.27;;
57599;SDS011;43426;43.594;24.334;2023-05-10T15:25:08;1.27;;;1.20;;
57599;SDS011;43426;43.594;24.334;2023-05-10T15:27:34;0.90;;;0.90;;
57599;SDS011;43426;43.594;24.334;2023-05-10T15:32:25;1.05;;;0.98;;
57599;SDS011;43426;43.594;24.334;2023-05-10T15:34:51;2.67;;;1.10;;
57599;SDS011;43426;43.594;24.334;2023-05-10T15:37:17;1.10;;;1.05;;
57599;SDS011;43426;43.594;24.334;2023-05-10T15:42:08;1.10;;;1.00;;
57599;SDS011;43426;43.594;24.334;2023-05-10T15:44:33;0.95;;;0.95;;
57599;SDS011;43426;43.594;24.334;2023-05-10T15:47:00;1.10;;;1.00;;
57599;SDS011;43426;43.594;24.334;2023-05-10T15:49:27;0.82;;;0.82;;
57599;SDS011;43426;43.594;24.334;2023-05-10T15:54:18;1.75;;;1.23;;
57599;SDS011;43426;43.594;24.334;2023-05-10T15:59:09;1.38;;;1.10;;
57599;SDS011;43426;43.594;24.334;2023-05-10T16:01:35;1.10;;;1.00;;
57599;SDS011;43426;43.594;24.334;2023-05-10T16:06:26;1.13;;;1.00;;
57599;SDS011;43426;43.594;24.334;2023-05-10T16:11:17;0.98;;;0.95;;
57599;SDS011;43426;43.594;24.334;2023-05-10T16:16:08;1.02;;;0.90;;
57599;SDS011;43426;43.594;24.334;2023-05-10T16:20:59;1.73;;;0.90;;
57599;SDS011;43426;43.594;24.334;2023-05-10T16:23:26;1.20;;;1.13;;
57599;SDS011;43426;43.594;24.334;2023-05-10T16:25:52;1.00;;;0.90;;
57599;SDS011;43426;43.594;24.334;2023-05-10T16:30:45;1.35;;;1.25;;
57599;SDS011;43426;43.594;24.334;2023-05-10T16:33:11;1.15;;;1.13;;
57599;SDS011;43426;43.594;24.334;2023-05-10T16:35:37;1.30;;;1.20;;
57599;SDS011;43426;43.594;24.334;2023-05-10T16:38:04;1.48;;;1.25;;
57599;SDS011;43426;43.594;24.334;2023-05-10T16:42:55;4.40;;;1.50;;
57599;SDS011;43426;43.594;24.334;2023-05-10T16:47:46;1.88;;;1.27;;
57599;SDS011;43426;43.594;24.334;2023-05-10T16:52:41;1.02;;;1.02;;
57599;SDS011;43426;43.594;24.334;2023-05-10T16:57:31;1.15;;;1.10;;
57599;SDS011;43426;43.594;24.334;2023-05-10T17:02:22;1.38;;;1.27;;
57599;SDS011;43426;43.594;24.334;2023-05-10T17:07:14;1.50;;;1.38;;
57599;SDS011;43426;43.594;24.334;2023-05-10T17:09:43;1.52;;;1.30;;
57599;SDS011;43426;43.594;24.334;2023-05-10T17:12:08;1.80;;;1.70;;
57599;SDS011;43426;43.594;24.334;2023-05-10T17:17:00;2.17;;;1.58;;
57599;SDS011;43426;43.594;24.334;2023-05-10T17:21:51;2.67;;;1.30;;
57599;SDS011;43426;43.594;24.334;2023-05-10T17:26:42;1.30;;;1.20;;
57599;SDS011;43426;43.594;24.334;2023-05-10T17:29:08;1.60;;;1.50;;
57599;SDS011;43426;43.594;24.334;2023-05-10T17:31:34;9.05;;;1.50;;
57599;SDS011;43426;43.594;24.334;2023-05-10T17:36:25;2.40;;;2.20;;
57599;SDS011;43426;43.594;24.334;2023-05-10T17:41:16;2.88;;;1.80;;
57599;SDS011;43426;43.594;24.334;2023-05-10T17:46:07;1.38;;;1.27;;
57599;SDS011;43426;43.594;24.334;2023-05-10T17:51:00;1.52;;;1.40;;
57599;SDS011;43426;43.594;24.334;2023-05-10T17:55:51;2.67;;;1.30;;
57599;SDS011;43426;43.594;24.334;2023-05-10T18:00:43;1.10;;;1.05;;
57599;SDS011;43426;43.594;24.334;2023-05-10T18:05:36;1.50;;;1.40;;
57599;SDS011;43426;43.594;24.334;2023-05-10T18:08:03;2.35;;;1.15;;
57599;SDS011;43426;43.594;24.334;2023-05-10T18:10:29;1.50;;;1.40;;
57599;SDS011;43426;43.594;24.334;2023-05-10T18:15:22;1.55;;;1.45;;
57599;SDS011;43426;43.594;24.334;2023-05-10T18:20:13;1.40;;;1.30;;
57599;SDS011;43426;43.594;24.334;2023-05-10T18:25:04;1.52;;;1.40;;
57599;SDS011;43426;43.594;24.334;2023-05-10T18:29:55;3.85;;;1.50;;
57599;SDS011;43426;43.594;24.334;2023-05-10T18:34:47;1.53;;;1.43;;
57599;SDS011;43426;43.594;24.334;2023-05-10T18:37:13;1.73;;;1.63;;
57599;SDS011;43426;43.594;24.334;2023-05-10T18:39:39;2.28;;;1.40;;